X  CloseMetar Aviation Weather Data     FYOA Ondangwa

Temperature

27°C Temperature

17°C Dewpoint

54% Humidity



Wind

 2 KM/H

 1 MPH

 0 M/S

 1 KTS



140°
South East
Current Conditions

Data Offline Data Offline
Pressure 1014.92 (hPa) - 29.97 (in)
Visibility 0 (mi) - 0 (km)
Airport
Airport-code FYOA

Location Ondangwa 595 (km)

Metar:
FYOA 051800Z AUTO 14001KT //// // ////// 27/17 Q1015

Time: 05-04-2020 20:00